Terminal Aerodrome Forecast
Issued by NWS Central Illinois

Home | Current Version | Previous Version | Text Only | Print | Product List | Glossary On
Versions: 1 2 3 4 5 6 7 8 9 10 11 12 13 14 15 16 17 18 19
000
FTUS43 KILX 281100
TAFSPI
TAF
KSPI 281140Z 2812/0112 10006KT P6SM OVC050
     FM282100 12007KT 1SM -SN BR OVC012
     FM010000 12007KT 3/4SM -SN BR OVC007
     FM010500 13007KT 1 1/2SM -SN BR OVC006=

USA.gov is the U.S. government's official web portal to all federal, state and local government web resources and services.